Time;durP1;ratioP1;P1;durP2;ratioP2;P2;SDS_P1;SDS_P2;PMS_P1;PMS_P2;Temp;Humidity;BMP_temperature;BMP_pressure;BME280_temperature;BME280_humidity;BME280_pressure;Samples;Min_cycle;Max_cycle;Signal;HPM_P1;HPM_P2
2022/11/25 00:00:51;;;;;;;10.40;2.80;;;7.10;99.90;;;;;;4897363;29;19945;-70
2022/11/25 00:03:17;;;;;;;7.35;2.40;;;7.20;99.90;;;;;;4896970;29;20075;-69
2022/11/25 00:05:43;;;;;;;6.43;3.00;;;7.10;99.90;;;;;;4896440;29;20056;-69
2022/11/25 00:08:08;;;;;;;14.85;2.55;;;7.10;99.90;;;;;;4895825;29;20045;-69
2022/11/25 00:10:34;;;;;;;13.85;2.60;;;7.10;99.90;;;;;;4897161;29;20048;-70
2022/11/25 00:13:00;;;;;;;15.90;2.75;;;7.10;99.90;;;;;;4896795;29;20104;-69
2022/11/25 00:15:25;;;;;;;10.10;2.53;;;7.00;99.90;;;;;;4897165;29;20132;-70
2022/11/25 00:17:51;;;;;;;12.00;3.83;;;7.10;99.90;;;;;;4897324;29;20052;-72
2022/11/25 00:20:20;;;;;;;14.02;2.45;;;7.10;99.90;;;;;;4895320;29;20041;-69
2022/11/25 00:22:45;;;;;;;13.05;2.92;;;6.90;99.90;;;;;;4896376;29;20136;-69
2022/11/25 00:25:11;;;;;;;9.80;2.40;;;7.00;99.90;;;;;;4896707;29;20139;-68
2022/11/25 00:27:37;;;;;;;14.30;3.65;;;7.00;99.90;;;;;;4897227;29;20376;-69
2022/11/25 00:30:03;;;;;;;14.27;3.13;;;7.00;99.90;;;;;;4896970;29;20146;-69
2022/11/25 00:32:29;;;;;;;11.35;2.83;;;7.00;99.90;;;;;;4896746;29;20562;-69
2022/11/25 00:34:55;;;;;;;20.75;3.45;;;7.00;99.90;;;;;;4896609;29;20049;-71
2022/11/25 00:37:20;;;;;;;14.32;2.95;;;7.10;99.90;;;;;;4896558;29;20127;-69
2022/11/25 00:39:46;;;;;;;7.90;2.60;;;7.10;99.90;;;;;;4896410;29;20055;-73
2022/11/25 00:44:56;;;;;;;11.85;3.53;;;7.10;99.90;;;;;;4896959;29;20088;-71
2022/11/25 00:47:22;;;;;;;15.73;3.72;;;7.10;99.90;;;;;;4879827;29;20056;-69
2022/11/25 00:49:50;;;;;;;6.15;3.38;;;7.10;99.90;;;;;;4896392;29;20049;-69
2022/11/25 00:52:21;;;;;;;15.57;3.38;;;7.10;99.90;;;;;;4896354;29;20052;-69
2022/11/25 00:54:48;;;;;;;14.02;3.15;;;7.10;99.90;;;;;;4895676;29;20437;-70
2022/11/25 00:57:15;;;;;;;5.30;2.50;;;7.10;99.90;;;;;;4895195;29;20394;-71
2022/11/25 00:59:40;;;;;;;13.05;2.88;;;7.10;99.90;;;;;;4896422;29;20055;-69
2022/11/25 01:02:06;;;;;;;12.43;2.53;;;7.40;99.90;;;;;;4896207;29;20044;-70
2022/11/25 01:04:32;;;;;;;10.52;2.63;;;7.10;99.90;;;;;;4896225;29;20117;-69
2022/11/25 01:06:59;;;;;;;10.82;2.55;;;7.10;99.90;;;;;;4896384;29;20052;-70
2022/11/25 01:09:26;;;;;;;8.38;2.15;;;7.10;99.90;;;;;;4896178;29;20056;-69
2022/11/25 01:11:52;;;;;;;10.60;2.70;;;7.10;99.90;;;;;;4896649;29;20053;-69
2022/11/25 01:14:19;;;;;;;10.43;2.47;;;7.10;99.90;;;;;;4896034;29;20398;-69
2022/11/25 01:16:45;;;;;;;10.38;2.58;;;7.10;99.90;;;;;;4896620;29;20059;-69
2022/11/25 01:19:11;;;;;;;16.58;3.15;;;7.10;99.90;;;;;;4895713;29;20052;-71
2022/11/25 01:21:38;;;;;;;12.93;3.35;;;7.10;99.90;;;;;;4896019;29;20056;-69
2022/11/25 01:24:05;;;;;;;9.23;2.28;;;7.10;99.90;;;;;;4878941;29;20068;-75
2022/11/25 01:26:31;;;;;;;11.45;2.72;;;7.10;99.90;;;;;;4896454;29;20501;-69
2022/11/25 01:29:03;;;;;;;11.48;2.45;;;7.20;99.90;;;;;;4896242;29;20498;-69
2022/11/25 01:31:31;;;;;;;10.63;1.90;;;7.10;99.90;;;;;;4896124;29;20100;-69
2022/11/25 01:34:00;;;;;;;18.40;2.97;;;7.20;99.90;;;;;;4897619;29;20423;-69
2022/11/25 01:36:26;;;;;;;8.98;2.30;;;7.20;99.90;;;;;;4898452;29;20560;-69
2022/11/25 01:38:55;;;;;;;9.02;2.80;;;7.30;99.90;;;;;;4900098;29;20080;-69
2022/11/25 01:41:22;;;;;;;10.18;3.15;;;7.20;99.90;;;;;;4899673;29;20363;-69
2022/11/25 01:44:13;;;;;;;12.38;3.35;;;7.20;99.90;;;;;;4900202;29;20402;-70
2022/11/25 01:46:49;;;;;;;12.30;2.70;;;7.20;99.90;;;;;;4900096;29;20126;-69
2022/11/25 01:49:31;;;;;;;16.23;3.60;;;7.20;99.90;;;;;;4899051;29;20096;-69
2022/11/25 01:52:06;;;;;;;9.90;2.55;;;7.20;99.90;;;;;;4899697;29;20053;-69
2022/11/25 01:54:37;;;;;;;9.20;2.53;;;7.30;99.90;;;;;;4899843;29;20131;-71
2022/11/25 01:57:10;;;;;;;9.27;2.10;;;7.30;99.90;;;;;;4899921;29;20060;-69
2022/11/25 01:59:40;;;;;;;12.38;2.78;;;7.30;99.90;;;;;;4899717;29;20122;-69
2022/11/25 02:02:06;;;;;;;15.10;2.67;;;7.40;99.90;;;;;;4899530;29;20561;-75
2022/11/25 02:04:33;;;;;;;;;;;7.40;99.90;;;;;;4898595;29;20045;-69
2022/11/25 02:07:07;;;;;;;10.15;2.50;;;7.40;99.90;;;;;;4899626;29;19994;-69
2022/11/25 02:09:35;;;;;;;9.02;2.53;;;7.30;99.90;;;;;;4899364;29;20163;-69
2022/11/25 02:12:01;;;;;;;8.88;2.30;;;7.40;99.90;;;;;;4899654;29;20063;-70
2022/11/25 02:14:27;;;;;;;12.63;2.53;;;7.30;99.90;;;;;;4898719;29;20737;-71
2022/11/25 02:16:53;;;;;;;11.07;2.42;;;7.30;99.90;;;;;;4899610;29;20080;-71
2022/11/25 02:19:24;;;;;;;13.25;2.83;;;7.30;99.90;;;;;;4898736;29;20056;-69
2022/11/25 02:21:55;;;;;;;9.98;2.45;;;7.30;99.90;;;;;;4898992;29;20045;-70
2022/11/25 02:24:33;;;;;;;7.85;2.60;;;7.30;99.90;;;;;;4898975;29;20443;-70
2022/11/25 02:26:59;;;;;;;15.65;3.85;;;7.30;99.90;;;;;;4899507;29;20049;-70
2022/11/25 02:29:26;;;;;;;10.95;2.53;;;7.20;99.90;;;;;;4898882;29;20049;-71
2022/11/25 02:31:52;;;;;;;16.88;2.30;;;7.20;99.90;;;;;;4899011;29;20503;-70
2022/11/25 02:34:17;;;;;;;13.70;2.70;;;7.20;99.90;;;;;;4898338;29;20060;-69
2022/11/25 02:36:43;;;;;;;10.65;2.90;;;7.20;99.90;;;;;;4898616;29;20131;-69
2022/11/25 02:39:09;;;;;;;9.77;2.78;;;7.40;99.90;;;;;;4898716;29;20053;-74
2022/11/25 02:41:46;;;;;;;12.88;2.60;;;7.20;99.90;;;;;;4899033;29;20044;-70
2022/11/25 02:44:12;;;;;;;13.82;3.47;;;7.20;99.90;;;;;;4897930;29;20049;-70
2022/11/25 02:46:37;;;;;;;13.95;2.65;;;7.20;99.90;;;;;;4899121;29;20056;-71
2022/11/25 02:49:03;;;;;;;15.95;2.90;;;7.20;99.90;;;;;;4898845;29;20107;-69
2022/11/25 02:51:31;;;;;;;12.98;2.33;;;7.20;99.90;;;;;;4897798;29;20064;-70
2022/11/25 02:53:57;;;;;;;12.90;2.60;;;7.10;99.90;;;;;;4898594;29;20056;-70
2022/11/25 02:56:26;;;;;;;13.80;2.97;;;7.20;99.90;;;;;;4898530;29;20040;-70
2022/11/25 02:58:52;;;;;;;15.05;3.50;;;7.10;99.90;;;;;;4898816;29;20041;-69
2022/11/25 03:01:18;;;;;;;5.85;2.20;;;7.10;99.90;;;;;;4898181;29;20048;-70
2022/11/25 03:03:44;;;;;;;8.10;2.35;;;7.10;99.90;;;;;;4898588;29;20495;-70
2022/11/25 03:06:09;;;;;;;11.13;3.08;;;7.20;99.90;;;;;;4897998;29;20140;-72
2022/11/25 03:08:37;;;;;;;9.73;2.08;;;7.20;99.90;;;;;;4881695;29;20058;-70
2022/11/25 03:11:03;;;;;;;14.25;3.45;;;7.20;99.90;;;;;;4898702;29;20059;-69
2022/11/25 03:13:28;;;;;;;15.07;2.85;;;7.20;99.90;;;;;;4898209;29;20052;-69
2022/11/25 03:15:54;;;;;;;17.20;4.07;;;7.20;99.90;;;;;;4898288;29;20112;-69
2022/11/25 03:18:20;;;;;;;11.05;2.50;;;7.20;99.90;;;;;;4898160;29;20494;-69
2022/11/25 03:20:45;;;;;;;12.85;2.70;;;7.20;99.90;;;;;;4897593;29;20045;-70
2022/11/25 03:23:11;;;;;;;9.85;3.05;;;7.20;99.90;;;;;;4896883;29;20463;-71
2022/11/25 03:25:37;;;;;;;10.65;2.63;;;7.30;99.90;;;;;;4897743;29;20056;-69
2022/11/25 03:28:03;;;;;;;23.80;3.53;;;7.20;99.90;;;;;;4897438;29;20112;-69
2022/11/25 03:30:30;;;;;;;11.10;3.03;;;7.20;99.90;;;;;;4897800;29;20078;-71
2022/11/25 03:32:56;;;;;;;12.57;2.83;;;7.30;99.90;;;;;;4898114;29;20131;-70
2022/11/25 03:35:22;;;;;;;13.00;3.65;;;7.30;99.90;;;;;;4897287;29;20128;-71
2022/11/25 03:37:48;;;;;;;15.68;2.97;;;7.30;99.90;;;;;;4898008;29;20668;-69
2022/11/25 03:40:15;;;;;;;7.45;2.33;;;7.30;99.90;;;;;;4897701;29;20052;-72
2022/11/25 03:42:41;;;;;;;9.55;2.92;;;7.30;99.90;;;;;;4897964;29;20051;-69
2022/11/25 03:45:08;;;;;;;15.93;3.45;;;7.30;99.90;;;;;;4897958;29;20063;-71
2022/11/25 03:47:33;;;;;;;11.38;2.78;;;7.30;99.90;;;;;;4897605;29;20049;-70
2022/11/25 03:49:59;;;;;;;10.93;3.45;;;7.20;99.90;;;;;;4897368;29;20059;-70
2022/11/25 03:52:24;;;;;;;13.00;3.38;;;7.30;99.90;;;;;;4897343;29;20049;-70
2022/11/25 03:54:50;;;;;;;14.50;3.13;;;7.20;99.90;;;;;;4897573;29;20108;-69
2022/11/25 03:57:16;;;;;;;14.93;3.10;;;7.30;99.90;;;;;;4896251;29;20192;-75
2022/11/25 03:59:42;;;;;;;11.40;2.80;;;7.20;99.90;;;;;;4897396;29;20108;-70
2022/11/25 04:02:08;;;;;;;11.38;2.85;;;7.20;99.90;;;;;;4897898;29;20487;-69
2022/11/25 04:04:33;;;;;;;13.30;2.75;;;7.30;99.90;;;;;;4896698;29;20045;-69
2022/11/25 04:06:59;;;;;;;9.98;2.70;;;7.30;99.90;;;;;;4897416;29;20502;-70
2022/11/25 04:09:25;;;;;;;11.32;3.45;;;7.30;99.90;;;;;;4897003;29;20071;-70
2022/11/25 04:14:35;;;;;;;7.63;3.03;;;7.40;99.90;;;;;;4897098;29;20057;-70
2022/11/25 04:17:01;;;;;;;5.78;2.70;;;7.30;99.90;;;;;;4897442;29;20390;-70
2022/11/25 04:19:27;;;;;;;17.92;3.10;;;7.30;99.90;;;;;;4896498;29;20096;-71
2022/11/25 04:21:53;;;;;;;13.02;2.80;;;7.40;99.90;;;;;;4897130;29;20050;-70
2022/11/25 04:24:19;;;;;;;13.15;3.28;;;7.40;99.90;;;;;;4896809;29;20499;-75
2022/11/25 04:26:45;;;;;;;8.90;2.15;;;7.40;99.90;;;;;;4897111;29;20049;-70
2022/11/25 04:29:11;;;;;;;8.63;2.92;;;7.40;99.90;;;;;;4896972;29;20513;-72
2022/11/25 04:31:37;;;;;;;12.32;2.50;;;7.40;99.90;;;;;;4896773;29;20124;-72
2022/11/25 04:34:04;;;;;;;17.08;3.55;;;7.40;99.90;;;;;;4896651;29;20218;-70
2022/11/25 04:36:30;;;;;;;14.10;4.07;;;7.40;99.90;;;;;;4896249;29;20120;-70
2022/11/25 04:38:55;;;;;;;13.85;3.25;;;7.40;99.90;;;;;;4896764;29;20100;-70
2022/11/25 04:41:21;;;;;;;12.90;4.60;;;7.40;99.90;;;;;;4896728;29;20052;-75
2022/11/25 04:43:47;;;;;;;10.05;2.58;;;7.50;99.90;;;;;;4897001;29;20041;-70
2022/11/25 04:46:22;;;;;;;11.50;3.10;;;7.50;99.90;;;;;;4896703;29;20588;-70
2022/11/25 04:48:48;;;;;;;11.02;3.50;;;7.50;99.90;;;;;;4896926;29;20056;-70
2022/11/25 04:51:13;;;;;;;7.43;3.33;;;7.50;99.90;;;;;;4895198;29;20052;-70
2022/11/25 04:53:39;;;;;;;11.27;2.88;;;7.50;99.90;;;;;;4895214;29;20070;-69
2022/11/25 04:56:05;;;;;;;14.95;2.83;;;7.50;99.90;;;;;;4896519;29;20052;-70
2022/11/25 05:01:15;;;;;;;10.02;3.00;;;7.50;99.90;;;;;;4896401;29;20139;-70
2022/11/25 05:03:40;;;;;;;16.58;3.47;;;7.60;99.90;;;;;;4895412;29;20127;-71
2022/11/25 05:06:07;;;;;;;19.63;3.65;;;7.60;99.90;;;;;;4895988;29;20498;-70
2022/11/25 05:08:33;;;;;;;15.02;3.15;;;7.60;99.90;;;;;;4895845;29;20060;-69
2022/11/25 05:10:59;;;;;;;12.13;3.28;;;7.60;99.90;;;;;;4896724;29;20205;-69
2022/11/25 05:13:25;;;;;;;9.35;3.22;;;7.70;99.90;;;;;;4895535;29;20135;-75
2022/11/25 05:15:50;;;;;;;17.88;4.45;;;7.70;99.90;;;;;;4896650;29;20068;-70
2022/11/25 05:18:16;;;;;;;13.25;3.28;;;7.80;99.90;;;;;;4896615;29;20051;-69
2022/11/25 05:20:42;;;;;;;11.68;3.67;;;7.80;99.90;;;;;;4895538;29;20135;-70
2022/11/25 05:23:08;;;;;;;15.57;3.05;;;7.80;99.90;;;;;;4896114;29;20177;-69
2022/11/25 05:25:34;;;;;;;11.60;3.38;;;7.80;99.90;;;;;;4896173;29;20059;-69
2022/11/25 05:28:01;;;;;;;14.25;3.70;;;7.80;99.90;;;;;;4896477;29;20063;-69
2022/11/25 05:30:26;;;;;;;11.57;3.53;;;7.80;99.90;;;;;;4895088;29;20180;-75
2022/11/25 05:32:52;;;;;;;17.45;4.28;;;7.90;99.90;;;;;;4895987;29;20139;-70
2022/11/25 05:35:18;;;;;;;16.02;4.35;;;7.80;99.90;;;;;;4896122;29;20060;-70
2022/11/25 05:37:44;;;;;;;;;;;7.90;99.90;;;;;;4895317;29;20048;-71
2022/11/25 05:40:10;;;;;;;13.48;4.13;;;8.00;99.90;;;;;;4895143;29;19934;-71
2022/11/25 05:42:36;;;;;;;;;;;8.00;99.90;;;;;;4896338;29;20422;-69
2022/11/25 05:45:02;;;;;;;16.95;4.38;;;8.00;99.90;;;;;;4896178;29;19924;-70
2022/11/25 05:47:27;;;;;;;11.85;3.88;;;8.10;99.90;;;;;;4896297;29;20049;-75
2022/11/25 05:49:53;;;;;;;15.45;3.85;;;8.20;99.90;;;;;;4895709;29;20051;-70
2022/11/25 05:52:19;;;;;;;17.15;4.45;;;8.20;99.90;;;;;;4896161;29;20559;-69
2022/11/25 05:54:44;;;;;;;17.85;3.92;;;8.20;99.90;;;;;;4895719;29;20053;-70
2022/11/25 05:57:10;;;;;;;9.82;3.28;;;8.20;99.90;;;;;;4895179;29;20056;-70
2022/11/25 05:59:36;;;;;;;14.52;4.55;;;8.20;99.90;;;;;;4895764;29;20045;-71
2022/11/25 06:02:01;;;;;;;11.90;3.70;;;8.20;99.90;;;;;;4894913;29;20052;-70
2022/11/25 06:04:27;;;;;;;20.42;3.78;;;8.20;99.90;;;;;;4895725;29;20044;-70
2022/11/25 06:06:53;;;;;;;17.23;4.38;;;8.20;99.90;;;;;;4894721;29;20055;-69
2022/11/25 06:09:18;;;;;;;17.80;4.43;;;8.30;99.90;;;;;;4895980;29;20052;-69
2022/11/25 06:11:44;;;;;;;13.75;4.68;;;8.30;99.90;;;;;;4895929;29;20041;-70
2022/11/25 06:14:10;;;;;;;17.33;4.75;;;8.30;99.90;;;;;;4895893;29;20084;-70
2022/11/25 06:16:35;;;;;;;13.40;4.00;;;8.30;99.90;;;;;;4895769;29;20056;-69
2022/11/25 06:19:05;;;;;;;13.43;5.30;;;8.30;99.90;;;;;;4895748;29;20044;-70
2022/11/25 06:21:31;;;;;;;15.95;4.57;;;8.20;99.90;;;;;;4897895;29;20041;-70
2022/11/25 06:23:57;;;;;;;11.18;4.43;;;8.30;99.90;;;;;;4898532;29;20476;-71
2022/11/25 06:26:23;;;;;;;18.70;4.65;;;8.30;99.90;;;;;;4899439;29;20095;-70
2022/11/25 06:28:52;;;;;;;10.68;4.07;;;8.20;99.90;;;;;;4898748;29;20059;-70
2022/11/25 06:31:20;;;;;;;15.45;4.50;;;8.20;99.90;;;;;;4899169;29;20080;-70
2022/11/25 06:33:47;;;;;;;13.68;3.75;;;8.20;99.90;;;;;;4898861;29;20060;-72
2022/11/25 06:36:16;;;;;;;13.73;4.57;;;8.20;99.90;;;;;;4898535;29;20052;-70
2022/11/25 06:38:47;;;;;;;14.50;4.65;;;8.20;99.90;;;;;;4898655;29;20063;-70
2022/11/25 06:41:13;;;;;;;16.48;4.50;;;8.20;99.90;;;;;;4898877;29;20048;-69
2022/11/25 06:43:39;;;;;;;;;;;8.10;99.90;;;;;;4899160;29;20109;-69
2022/11/25 06:46:15;;;;;;;16.95;3.88;;;8.10;99.90;;;;;;4898826;29;19923;-69
2022/11/25 06:48:41;;;;;;;;;;;8.20;99.90;;;;;;4897931;29;20109;-70
2022/11/25 06:51:09;;;;;;;10.20;3.70;;;8.10;99.90;;;;;;4898303;29;19924;-70
2022/11/25 06:53:36;;;;;;;13.90;4.78;;;8.20;99.90;;;;;;4898520;29;20499;-73
2022/11/25 06:56:03;;;;;;;;;;;8.10;99.90;;;;;;4899006;29;20108;-70
2022/11/25 06:58:31;;;;;;;14.85;4.00;;;8.20;99.90;;;;;;4898960;29;19930;-70
2022/11/25 07:01:02;;;;;;;16.80;3.75;;;8.20;99.90;;;;;;4896697;29;20649;-69
2022/11/25 07:03:29;;;;;;;14.00;4.10;;;8.20;99.90;;;;;;4898771;29;20565;-71
2022/11/25 07:05:56;;;;;;;19.77;3.78;;;8.20;99.90;;;;;;4897641;29;20048;-69
2022/11/25 07:08:23;;;;;;;13.30;3.22;;;8.20;99.90;;;;;;4898516;29;20048;-69
2022/11/25 07:10:49;;;;;;;11.32;3.42;;;8.30;99.90;;;;;;4898362;29;20049;-69
2022/11/25 07:13:15;;;;;;;12.27;3.40;;;8.30;99.90;;;;;;4897738;29;20080;-71
2022/11/25 07:15:40;;;;;;;16.63;3.85;;;8.30;99.90;;;;;;4898041;29;20518;-75
2022/11/25 07:18:06;;;;;;;16.65;3.70;;;8.20;99.90;;;;;;4898470;29;20048;-69
2022/11/25 07:20:32;;;;;;;14.02;3.00;;;8.30;99.90;;;;;;4897928;29;20080;-69
2022/11/25 07:22:57;;;;;;;12.82;3.63;;;8.30;99.90;;;;;;4897624;29;20499;-73
2022/11/25 07:25:23;;;;;;;7.90;3.05;;;8.30;99.90;;;;;;4912750;29;20648;-69
2022/11/25 07:27:49;;;;;;;12.32;3.67;;;8.30;99.90;;;;;;4897975;29;20059;-69
2022/11/25 07:30:15;;;;;;;10.30;3.58;;;8.30;99.90;;;;;;4897982;29;20080;-72
2022/11/25 07:32:40;;;;;;;11.05;2.97;;;8.30;99.90;;;;;;4898022;29;20063;-76
2022/11/25 07:35:06;;;;;;;9.15;3.15;;;8.30;99.90;;;;;;4897578;29;20044;-71
2022/11/25 07:37:32;;;;;;;12.88;3.25;;;8.30;99.90;;;;;;4898029;29;20116;-71
2022/11/25 07:39:58;;;;;;;12.50;2.80;;;8.30;99.90;;;;;;4897334;29;20044;-71
2022/11/25 07:42:23;;;;;;;7.63;2.78;;;8.30;99.90;;;;;;4898102;29;20056;-70
2022/11/25 07:44:49;;;;;;;11.85;3.40;;;8.30;99.90;;;;;;4897264;29;20691;-70
2022/11/25 07:47:15;;;;;;;14.07;3.22;;;8.30;99.90;;;;;;4897954;29;20483;-72
2022/11/25 07:49:40;;;;;;;8.20;2.47;;;8.30;99.90;;;;;;4897647;29;20505;-70
2022/11/25 07:52:06;;;;;;;10.98;3.10;;;8.20;99.90;;;;;;4897474;29;20053;-70
2022/11/25 07:54:32;;;;;;;7.95;3.53;;;8.20;99.90;;;;;;4896704;29;20052;-70
2022/11/25 07:56:57;;;;;;;8.77;3.00;;;8.20;99.90;;;;;;4897355;29;20060;-71
2022/11/25 07:59:23;;;;;;;13.32;2.95;;;8.20;99.90;;;;;;4897507;29;20084;-71
2022/11/25 08:01:51;;;;;;;10.57;3.05;;;8.10;99.90;;;;;;4897289;29;20471;-70
2022/11/25 08:04:17;;;;;;;11.07;3.22;;;8.10;99.90;;;;;;4897127;29;20052;-70
2022/11/25 08:06:45;;;;;;;10.93;2.60;;;8.10;99.90;;;;;;4895813;29;20506;-73
2022/11/25 08:09:14;;;;;;;9.02;3.13;;;8.00;99.90;;;;;;4897367;29;20089;-70
2022/11/25 08:11:41;;;;;;;15.07;3.33;;;8.00;99.90;;;;;;4897534;29;20483;-70
2022/11/25 08:14:07;;;;;;;10.43;2.72;;;8.00;99.90;;;;;;4897070;29;20056;-70
2022/11/25 08:16:33;;;;;;;8.90;2.50;;;8.00;99.90;;;;;;4897387;29;20148;-70
2022/11/25 08:19:00;;;;;;;9.35;3.25;;;8.00;99.90;;;;;;4895839;29;20102;-72
2022/11/25 08:21:27;;;;;;;8.80;3.08;;;7.90;99.90;;;;;;4896688;29;20051;-70
2022/11/25 08:23:53;;;;;;;;;;;8.00;99.90;;;;;;4896439;29;20123;-70
2022/11/25 08:26:24;;;;;;;11.65;2.85;;;8.00;99.90;;;;;;4897306;29;19923;-71
2022/11/25 08:28:50;;;;;;;14.40;2.92;;;8.00;99.90;;;;;;4896853;29;20151;-70
2022/11/25 08:31:18;;;;;;;;;;;8.00;99.90;;;;;;4896478;29;20056;-69
2022/11/25 08:33:43;;;;;;;;;;;8.00;99.90;;;;;;4897519;29;20322;-70
2022/11/25 08:36:10;;;;;;;8.15;2.47;;;8.00;99.90;;;;;;4895046;29;19924;-70
2022/11/25 08:38:36;;;;;;;10.85;2.72;;;8.00;99.90;;;;;;4895642;29;20406;-69
2022/11/25 08:41:02;;;;;;;5.47;2.67;;;8.00;99.90;;;;;;4896622;29;20136;-70
2022/11/25 08:43:28;;;;;;;13.15;3.08;;;8.00;99.90;;;;;;4896579;29;20131;-71
2022/11/25 08:45:54;;;;;;;14.23;3.08;;;8.10;99.90;;;;;;4896478;29;20091;-68
2022/11/25 08:48:20;;;;;;;8.50;3.38;;;8.20;99.90;;;;;;4897023;29;20084;-68
2022/11/25 08:50:51;;;;;;;9.50;2.80;;;8.30;99.90;;;;;;4896096;29;20049;-73
2022/11/25 08:53:18;;;;;;;9.80;3.17;;;8.30;99.90;;;;;;4896079;29;20048;-70
2022/11/25 08:55:44;;;;;;;11.00;3.22;;;8.30;99.90;;;;;;4896707;29;20127;-69
2022/11/25 08:58:11;;;;;;;21.45;3.83;;;8.30;99.90;;;;;;4896389;29;20049;-72
2022/11/25 09:00:42;;;;;;;13.52;3.40;;;8.40;99.90;;;;;;4895734;29;20471;-69
2022/11/25 09:03:07;;;;;;;16.13;3.33;;;8.40;99.90;;;;;;4895888;29;20119;-70
2022/11/25 09:05:37;;;;;;;8.32;3.08;;;8.50;99.90;;;;;;4895441;29;20053;-69
2022/11/25 09:08:04;;;;;;;15.00;4.20;;;8.60;99.90;;;;;;4895316;29;20048;-72
2022/11/25 09:10:31;;;;;;;11.25;3.90;;;8.60;99.90;;;;;;4895760;29;20048;-69
2022/11/25 09:12:57;;;;;;;9.85;3.65;;;8.60;99.90;;;;;;4895660;29;20052;-70
2022/11/25 09:15:23;;;;;;;10.13;3.20;;;8.70;99.90;;;;;;4895461;29;20060;-69
2022/11/25 09:17:56;;;;;;;10.73;3.53;;;8.70;99.90;;;;;;4896491;29;20044;-69
2022/11/25 09:20:21;;;;;;;11.50;4.07;;;8.80;99.90;;;;;;4895813;29;20446;-69
2022/11/25 09:22:47;;;;;;;8.27;3.53;;;8.80;99.90;;;;;;4895946;29;20052;-71
2022/11/25 09:25:13;;;;;;;18.10;3.75;;;8.90;99.90;;;;;;4895859;29;20059;-69
2022/11/25 09:27:38;;;;;;;9.27;3.92;;;8.90;99.90;;;;;;4896524;29;20045;-69
2022/11/25 09:30:05;;;;;;;9.00;3.38;;;8.90;99.90;;;;;;4895241;29;20053;-69
2022/11/25 09:32:30;;;;;;;10.10;3.70;;;9.00;99.90;;;;;;4894796;29;20064;-69
2022/11/25 09:34:56;;;;;;;9.23;3.55;;;9.30;99.90;;;;;;4894851;29;20056;-69
2022/11/25 09:37:22;;;;;;;9.48;3.38;;;9.10;99.90;;;;;;4895273;29;20064;-69
2022/11/25 09:39:49;;;;;;;11.32;3.83;;;9.10;99.90;;;;;;4895366;29;20049;-73
2022/11/25 09:48:52;;;;;;;8.97;3.30;;;9.30;99.90;;;;;;4855959;29;20102;-70
2022/11/25 09:51:23;;;;;;;8.00;2.97;;;9.30;99.90;;;;;;4894679;29;20123;-69
2022/11/25 09:54:14;;;;;;;9.40;3.53;;;9.40;99.90;;;;;;4894669;29;20380;-69
2022/11/25 09:56:42;;;;;;;8.93;2.78;;;9.40;99.90;;;;;;4898891;29;20533;-69
2022/11/25 09:59:16;;;;;;;8.18;3.55;;;9.40;99.90;;;;;;4898469;29;20086;-69
2022/11/25 10:01:51;;;;;;;9.38;3.03;;;9.50;99.90;;;;;;4898843;29;20044;-71
2022/11/25 10:04:25;;;;;;;13.73;3.35;;;9.50;99.90;;;;;;4898173;29;20045;-71
2022/11/25 10:06:56;;;;;;;8.05;3.10;;;9.70;99.90;;;;;;4899486;29;20056;-69
2022/11/25 10:09:25;;;;;;;9.60;3.20;;;9.70;99.90;;;;;;4899490;29;20075;-69
2022/11/25 10:11:58;;;;;;;6.22;2.88;;;9.80;99.90;;;;;;4899645;29;20037;-69
2022/11/25 10:15:10;;;;;;;5.32;2.78;;;9.90;99.90;;;;;;4899216;29;20607;-68
2022/11/25 10:17:39;;;;;;;11.45;2.78;;;10.00;99.90;;;;;;4883997;29;20057;-70
2022/11/25 10:20:13;;;;;;;7.07;2.60;;;10.10;99.90;;;;;;4897439;29;20041;-71
2022/11/25 10:22:44;;;;;;;7.65;2.88;;;10.20;99.90;;;;;;4898879;29;20070;-69
2022/11/25 10:25:23;;;;;;;7.78;2.67;;;10.30;99.90;;;;;;4898548;29;20427;-69
2022/11/25 10:27:57;;;;;;;4.95;2.50;;;10.30;99.90;;;;;;4899363;29;20045;-69
2022/11/25 10:30:37;;;;;;;5.10;2.55;;;10.50;99.90;;;;;;4899035;29;20048;-69
2022/11/25 10:33:08;;;;;;;5.60;2.20;;;10.60;99.90;;;;;;4898986;29;20048;-70
2022/11/25 10:36:17;;;;;;;12.88;2.80;;;10.70;99.90;;;;;;4898490;29;20522;-69
2022/11/25 10:39:01;;;;;;;5.70;2.50;;;11.00;99.90;;;;;;4859241;29;20049;-70
2022/11/25 10:41:33;;;;;;;8.55;2.65;;;11.10;99.90;;;;;;4843958;29;20174;-71
2022/11/25 10:43:59;;;;;;;8.85;2.25;;;11.50;99.90;;;;;;4885535;29;20052;-75
2022/11/25 10:46:43;;;;;;;6.40;2.22;;;12.00;99.90;;;;;;4898968;29;20139;-70
2022/11/25 10:49:14;;;;;;;15.60;3.72;;;12.50;99.90;;;;;;4898239;29;20056;-71
2022/11/25 10:51:46;;;;;;;11.93;3.00;;;12.90;99.90;;;;;;4897944;29;20379;-70
2022/11/25 10:54:15;;;;;;;10.30;1.90;;;13.10;99.90;;;;;;4898438;29;20462;-70
2022/11/25 10:56:53;;;;;;;3.60;2.10;;;13.30;99.90;;;;;;4898954;29;20044;-70
2022/11/25 10:59:22;;;;;;;7.25;2.05;;;13.50;99.90;;;;;;4898159;29;20048;-70
2022/11/25 11:01:48;;;;;;;4.85;1.60;;;13.70;99.90;;;;;;4898734;29;20052;-70
2022/11/25 11:04:15;;;;;;;5.70;1.83;;;14.00;99.90;;;;;;4897943;29;20095;-70
2022/11/25 11:06:44;;;;;;;4.38;1.88;;;13.90;99.90;;;;;;4898039;29;20057;-70
2022/11/25 11:09:28;;;;;;;7.75;2.17;;;14.00;99.90;;;;;;4897786;29;20127;-67
2022/11/25 11:11:53;;;;;;;5.97;1.85;;;14.30;99.90;;;;;;4898699;29;20047;-67
2022/11/25 11:14:20;;;;;;;5.63;2.33;;;14.50;99.90;;;;;;4897882;29;20052;-68
2022/11/25 11:16:56;;;;;;;10.02;2.38;;;14.70;99.90;;;;;;4898534;29;20143;-67
2022/11/25 11:19:29;;;;;;;9.32;2.47;;;14.80;99.90;;;;;;4896463;29;20734;-67
2022/11/25 11:22:13;;;;;;;6.93;2.08;;;14.90;99.90;;;;;;4898320;29;20080;-67
2022/11/25 11:24:40;;;;;;;10.90;2.15;;;15.00;99.90;;;;;;4897860;29;20128;-67
2022/11/25 11:27:15;;;;;;;7.10;2.00;;;15.30;99.90;;;;;;4896825;29;20049;-68
2022/11/25 11:29:40;;;;;;;5.38;2.05;;;15.50;99.90;;;;;;4898253;29;20056;-67
2022/11/25 11:32:06;;;;;;;;;;;15.90;99.90;;;;;;4898046;29;20103;-68
2022/11/25 11:34:47;;;;;;;6.18;1.70;;;16.20;99.90;;;;;;4897706;29;20373;-67
2022/11/25 11:37:31;;;;;;;6.97;2.08;;;16.40;99.90;;;;;;4897578;29;20049;-67
2022/11/25 11:40:45;;;;;;;9.45;2.30;;;16.50;99.90;;;;;;4897854;29;20052;-69
2022/11/25 11:43:23;;;;;;;6.18;2.20;;;16.80;99.90;;;;;;4889098;29;20072;-68
2022/11/25 11:45:54;;;;;;;6.72;1.70;;;17.30;99.90;;;;;;4897830;29;20131;-68
2022/11/25 11:48:27;;;;;;;6.75;1.80;;;17.70;99.90;;;;;;4897631;29;20128;-68
2022/11/25 11:51:21;;;;;;;7.60;1.80;;;18.00;99.90;;;;;;4897314;29;20049;-68
2022/11/25 11:53:50;;;;;;;4.80;1.75;;;18.30;99.90;;;;;;4897620;29;20056;-68
2022/11/25 11:56:18;;;;;;;4.75;1.95;;;18.60;99.90;;;;;;4897519;29;20196;-68
2022/11/25 11:58:54;;;;;;;11.80;2.10;;;18.90;99.90;;;;;;4897774;29;20044;-68
2022/11/25 12:01:25;;;;;;;5.45;1.85;;;19.10;99.90;;;;;;4897302;29;20048;-67
2022/11/25 12:04:02;;;;;;;10.25;2.25;;;19.10;99.90;;;;;;4897372;29;20048;-69
2022/11/25 12:06:33;;;;;;;8.38;1.73;;;18.70;99.90;;;;;;4896503;29;20048;-67
2022/11/25 12:09:14;;;;;;;12.25;2.13;;;18.10;99.90;;;;;;4897220;29;20559;-68
2022/11/25 12:11:43;;;;;;;5.85;1.75;;;18.20;99.90;;;;;;4897480;29;20053;-69
2022/11/25 12:14:34;;;;;;;7.68;1.50;;;18.60;99.90;;;;;;4896787;29;20052;-69
2022/11/25 12:17:04;;;;;;;6.40;1.60;;;19.20;96.70;;;;;;4896756;29;20531;-68
2022/11/25 12:19:42;;;;;;;8.88;1.80;;;19.50;99.90;;;;;;4895876;29;20048;-67
2022/11/25 12:22:23;;;;;;;6.72;1.70;;;19.20;99.00;;;;;;4895578;29;20491;-69
2022/11/25 12:24:53;;;;;;;7.15;1.67;;;18.30;99.90;;;;;;4895215;29;20057;-68
2022/11/25 12:27:35;;;;;;;10.00;3.13;;;17.20;99.90;;;;;;4895348;29;20455;-67
2022/11/25 12:30:06;;;;;;;7.93;1.80;;;16.30;99.90;;;;;;4894525;29;20058;-67
2022/11/25 12:32:55;;;;;;;10.25;1.92;;;15.40;99.90;;;;;;4895544;29;20048;-67
2022/11/25 12:35:42;;;;;;;9.15;2.42;;;14.60;99.90;;;;;;4894486;29;20155;-67
2022/11/25 12:38:23;;;;;;;;;;;14.00;99.90;;;;;;4896125;29;20072;-73
2022/11/25 12:41:01;;;;;;;9.30;1.98;;;13.60;99.90;;;;;;4896166;29;19923;-67
2022/11/25 12:43:41;;;;;;;6.05;2.00;;;13.30;99.90;;;;;;4896255;29;20091;-67
2022/11/25 12:46:19;;;;;;;8.30;2.05;;;13.20;99.90;;;;;;4896430;29;20052;-72
2022/11/25 12:48:45;;;;;;;9.30;1.98;;;13.00;99.90;;;;;;4896179;29;20127;-68
2022/11/25 12:51:28;;;;;;;6.60;2.35;;;12.90;99.90;;;;;;4895637;29;20132;-69
2022/11/25 12:53:57;;;;;;;8.10;1.75;;;12.90;99.90;;;;;;4895848;29;20052;-68
2022/11/25 12:57:01;;;;;;;10.15;1.80;;;12.90;99.90;;;;;;4894691;29;20132;-67
2022/11/25 12:59:44;;;;;;;7.28;2.45;;;13.00;99.90;;;;;;4888252;29;20056;-67
2022/11/25 13:02:27;;;;;;;7.60;2.20;;;13.10;99.90;;;;;;4895705;29;20474;-73
2022/11/25 13:05:11;;;;;;;7.25;1.85;;;13.40;99.90;;;;;;4895791;29;20103;-68
2022/11/25 13:07:57;;;;;;;8.40;1.90;;;13.90;99.90;;;;;;4895971;29;20056;-68
2022/11/25 13:10:25;;;;;;;11.30;2.67;;;14.50;99.90;;;;;;4895628;29;20043;-68
2022/11/25 13:13:13;;;;;;;7.20;2.25;;;14.60;99.90;;;;;;4896216;29;20052;-69
2022/11/25 13:15:43;;;;;;;8.80;1.50;;;14.40;99.90;;;;;;4896069;29;20139;-69